Time,TemperatureF,DewpointF,PressureIn,WindDirection,WindDirectionDegrees,WindSpeedMPH,WindSpeedGustMPH,Humidity,HourlyPrecipIn,Conditions,Clouds,dailyrainin,SoftwareType,DateUTC
2013-02-11 00:05:00,33.1,9.6,29.97,SSE,153,0.0,0.0,37,0.00,,,0.00,Wunderground v.1.15,2013-02-11 07:05:00,
2013-02-11 00:15:00,32.8,9.9,29.97,SSE,152,0.0,0.0,38,0.00,,,0.00,Wunderground v.1.15,2013-02-11 07:15:00,
2013-02-11 00:20:00,32.6,9.2,29.96,SSE,153,0.0,0.0,37,0.00,,,0.00,Wunderground v.1.15,2013-02-11 07:20:00,
2013-02-11 00:25:00,32.5,9.7,29.96,SSE,153,0.0,0.0,38,0.00,,,0.00,Wunderground v.1.15,2013-02-11 07:25:00,
2013-02-11 00:30:00,32.3,9.5,29.96,SSE,152,0.0,0.0,38,0.00,,,0.00,Wunderground v.1.15,2013-02-11 07:30:00,
2013-02-11 00:35:00,32.0,9.8,29.96,SSE,153,0.0,0.0,39,0.00,,,0.00,Wunderground v.1.15,2013-02-11 07:35:00,
2013-02-11 00:45:00,31.6,9.4,29.96,SSE,152,0.0,0.0,39,0.00,,,0.00,Wunderground v.1.15,2013-02-11 07:45:00,
2013-02-11 00:50:00,31.4,9.3,29.96,SSE,153,0.0,0.0,39,0.00,,,0.00,Wunderground v.1.15,2013-02-11 07:50:00,
2013-02-11 00:55:00,31.3,9.7,29.97,SSE,153,0.0,0.0,40,0.00,,,0.00,Wunderground v.1.15,2013-02-11 07:55:00,
2013-02-11 01:00:00,31.2,9.6,29.97,SSE,153,0.0,0.0,40,0.00,,,0.00,Wunderground v.1.15,2013-02-11 08:00:00,
2013-02-11 01:05:00,31.2,9.6,29.97,SSE,152,0.0,0.0,40,0.00,,,0.00,Wunderground v.1.15,2013-02-11 08:05:00,
2013-02-11 01:15:00,31.0,8.9,29.97,SSE,152,0.0,0.0,39,0.00,,,0.00,Wunderground v.1.15,2013-02-11 08:15:00,
2013-02-11 01:25:00,30.8,9.3,29.97,SSE,153,0.0,0.0,40,0.00,,,0.00,Wunderground v.1.15,2013-02-11 08:25:00,
2013-02-11 01:30:00,30.6,9.1,29.96,SSE,152,0.0,0.0,40,0.00,,,0.00,Wunderground v.1.15,2013-02-11 08:30:00,
2013-02-11 01:35:00,30.5,9.0,29.97,SSE,153,0.0,0.0,40,0.00,,,0.00,Wunderground v.1.15,2013-02-11 08:35:00,
2013-02-11 01:45:00,30.4,8.9,29.96,SSE,153,0.0,0.0,40,0.00,,,0.00,Wunderground v.1.15,2013-02-11 08:45:00,
2013-02-11 01:50:00,30.3,8.3,29.97,SSE,153,0.0,0.0,39,0.00,,,0.00,Wunderground v.1.15,2013-02-11 08:50:00,
2013-02-11 01:55:00,30.1,8.1,29.97,SSE,150,0.0,0.0,39,0.00,,,0.00,Wunderground v.1.15,2013-02-11 08:55:00,
2013-02-11 02:00:00,29.8,7.8,29.96,SSE,150,0.0,0.0,39,0.00,,,0.00,Wunderground v.1.15,2013-02-11 09:00:00,
2013-02-11 02:05:00,29.5,7.0,29.96,SSE,150,0.0,0.0,38,0.00,,,0.00,Wunderground v.1.15,2013-02-11 09:05:00,
2013-02-11 02:15:00,29.1,7.7,29.96,SSE,149,0.0,0.0,40,0.00,,,0.00,Wunderground v.1.15,2013-02-11 09:15:00,
2013-02-11 02:20:00,29.0,7.7,29.96,SSE,149,0.0,0.0,40,0.00,,,0.00,Wunderground v.1.15,2013-02-11 09:20:00,
2013-02-11 02:25:00,28.8,7.5,29.96,SSE,150,0.0,0.0,40,0.00,,,0.00,Wunderground v.1.15,2013-02-11 09:25:00,
2013-02-11 02:30:00,28.8,8.0,29.96,SSE,150,0.0,0.0,41,0.00,,,0.00,Wunderground v.1.15,2013-02-11 09:30:00,
2013-02-11 02:35:00,28.7,7.9,29.96,SSE,150,0.0,0.0,41,0.00,,,0.00,Wunderground v.1.15,2013-02-11 09:35:00,
2013-02-11 02:40:00,28.6,8.4,29.96,SSE,149,0.0,0.0,42,0.00,,,0.00,Wunderground v.1.15,2013-02-11 09:40:00,
2013-02-11 02:45:00,28.7,8.5,29.96,SSE,150,0.0,0.0,42,0.00,,,0.00,Wunderground v.1.15,2013-02-11 09:45:00,
2013-02-11 02:55:00,28.7,7.9,29.95,SSE,150,0.0,0.0,41,0.00,,,0.00,Wunderground v.1.15,2013-02-11 09:55:00,
2013-02-11 03:05:00,28.7,8.5,29.96,SSE,150,0.0,0.0,42,0.00,,,0.00,Wunderground v.1.15,2013-02-11 10:05:00,
2013-02-11 03:15:00,28.6,8.4,29.96,SSE,150,0.0,0.0,42,0.00,,,0.00,Wunderground v.1.15,2013-02-11 10:15:00,
2013-02-11 03:20:00,28.5,7.8,29.96,South,171,0.0,0.0,41,0.00,,,0.00,Wunderground v.1.15,2013-02-11 10:20:00,
2013-02-11 03:25:00,28.4,7.7,29.96,South,173,0.0,0.0,41,0.00,,,0.00,Wunderground v.1.15,2013-02-11 10:25:00,
2013-02-11 03:30:00,28.1,6.8,29.96,South,173,0.0,0.0,40,0.00,,,0.00,Wunderground v.1.15,2013-02-11 10:30:00,
2013-02-11 03:35:00,27.8,6.6,29.96,South,173,0.0,0.0,40,0.00,,,0.00,Wunderground v.1.15,2013-02-11 10:35:00,
2013-02-11 03:40:00,27.6,6.9,29.96,South,175,0.0,0.0,41,0.00,,,0.00,Wunderground v.1.15,2013-02-11 10:40:00,
2013-02-11 03:50:00,27.1,6.5,29.97,South,175,0.0,0.0,41,0.00,,,0.00,Wunderground v.1.15,2013-02-11 10:50:00,
2013-02-11 03:55:00,27.0,6.4,29.97,South,175,0.0,0.0,41,0.00,,,0.00,Wunderground v.1.15,2013-02-11 10:55:00,
2013-02-11 04:00:00,26.9,6.3,29.96,South,175,0.0,0.0,41,0.00,,,0.00,Wunderground v.1.15,2013-02-11 11:00:00,
2013-02-11 04:05:00,26.7,6.6,29.97,South,175,0.0,0.0,42,0.00,,,0.00,Wunderground v.1.15,2013-02-11 11:05:00,
2013-02-11 04:15:00,26.6,6.6,29.97,South,175,0.0,0.0,42,0.00,,,0.00,Wunderground v.1.15,2013-02-11 11:15:00,
2013-02-11 04:20:00,26.5,7.0,29.97,South,175,0.0,0.0,43,0.00,,,0.00,Wunderground v.1.15,2013-02-11 11:20:00,
2013-02-11 04:25:00,26.3,6.3,29.97,South,175,0.0,0.0,42,0.00,,,0.00,Wunderground v.1.15,2013-02-11 11:25:00,
2013-02-11 04:30:00,26.3,6.8,29.97,South,175,0.0,0.0,43,0.00,,,0.00,Wunderground v.1.15,2013-02-11 11:30:00,
2013-02-11 04:35:00,26.3,6.8,29.97,South,175,0.0,0.0,43,0.00,,,0.00,Wunderground v.1.15,2013-02-11 11:35:00,
2013-02-11 04:45:00,26.2,6.7,29.97,South,175,0.0,0.0,43,0.00,,,0.00,Wunderground v.1.15,2013-02-11 11:45:00,
2013-02-11 04:55:00,26.1,6.6,29.98,South,175,0.0,0.0,43,0.00,,,0.00,Wunderground v.1.15,2013-02-11 11:55:00,
2013-02-11 05:00:00,26.1,7.1,29.98,South,175,0.0,0.0,44,0.00,,,0.00,Wunderground v.1.15,2013-02-11 12:00:00,
2013-02-11 05:05:00,26.1,7.1,30.00,South,175,0.0,0.0,44,0.00,,,0.00,Wunderground v.1.15,2013-02-11 12:05:00,
2013-02-11 05:15:00,26.0,7.0,30.00,South,175,0.0,0.0,44,0.00,,,0.00,Wunderground v.1.15,2013-02-11 12:15:00,
2013-02-11 05:20:00,26.0,7.0,30.00,South,175,0.0,0.0,44,0.00,,,0.00,Wunderground v.1.15,2013-02-11 12:20:00,
2013-02-11 05:25:00,25.9,7.4,30.00,South,175,0.0,0.0,45,0.00,,,0.00,Wunderground v.1.15,2013-02-11 12:25:00,
2013-02-11 05:30:00,25.8,6.9,30.00,South,175,0.0,0.0,44,0.00,,,0.00,Wunderground v.1.15,2013-02-11 12:30:00,
2013-02-11 05:35:00,25.8,7.4,30.00,South,175,0.0,0.0,45,0.00,,,0.00,Wunderground v.1.15,2013-02-11 12:35:00,
2013-02-11 05:40:00,25.7,7.7,30.00,South,175,0.0,0.0,46,0.00,,,0.00,Wunderground v.1.15,2013-02-11 12:40:00,
2013-02-11 05:45:00,25.7,7.3,30.00,South,175,0.0,0.0,45,0.00,,,0.00,Wunderground v.1.15,2013-02-11 12:45:00,
2013-02-11 05:55:00,25.6,7.7,30.01,South,175,0.0,0.0,46,0.00,,,0.00,Wunderground v.1.15,2013-02-11 12:55:00,
2013-02-11 06:05:00,25.6,7.2,30.02,South,175,0.0,0.0,45,0.00,,,0.00,Wunderground v.1.15,2013-02-11 13:05:00,
2013-02-11 06:15:00,25.6,6.7,30.02,South,175,0.0,0.0,44,0.00,,,0.00,Wunderground v.1.15,2013-02-11 13:15:00,
2013-02-11 06:20:00,25.5,6.6,30.02,South,175,0.0,0.0,44,0.00,,,0.00,Wunderground v.1.15,2013-02-11 13:20:00,
2013-02-11 06:30:00,25.3,6.4,30.03,South,175,0.0,0.0,44,0.00,,,0.00,Wunderground v.1.15,2013-02-11 13:30:00,
2013-02-11 06:35:00,25.2,6.3,30.03,South,175,0.0,0.0,44,0.00,,,0.00,Wunderground v.1.15,2013-02-11 13:35:00,
2013-02-11 06:40:00,25.1,6.2,30.03,South,175,0.0,0.0,44,0.00,,,0.00,Wunderground v.1.15,2013-02-11 13:40:00,
2013-02-11 06:50:00,24.8,5.9,30.03,South,175,0.0,0.0,44,0.00,,,0.00,Wunderground v.1.15,2013-02-11 13:50:00,
2013-02-11 06:55:00,24.7,5.8,30.04,South,175,0.0,0.0,44,0.00,,,0.00,Wunderground v.1.15,2013-02-11 13:55:00,
2013-02-11 07:00:00,24.6,5.8,30.03,South,175,0.0,0.0,44,0.00,,,0.00,Wunderground v.1.15,2013-02-11 14:00:00,
2013-02-11 07:05:00,24.5,5.7,30.05,South,175,0.0,0.0,44,0.00,,,0.00,Wunderground v.1.15,2013-02-11 14:05:00,
2013-02-11 07:15:00,24.3,5.5,30.06,South,175,0.0,0.0,44,0.00,,,0.00,Wunderground v.1.15,2013-02-11 14:15:00,
2013-02-11 07:25:00,24.2,5.4,30.06,South,175,0.0,0.0,44,0.00,,,0.00,Wunderground v.1.15,2013-02-11 14:25:00,
2013-02-11 07:30:00,24.3,6.0,30.07,South,175,0.0,0.0,45,0.00,,,0.00,Wunderground v.1.15,2013-02-11 14:30:00,
2013-02-11 07:40:00,24.8,5.9,30.06,SW,236,0.0,0.0,44,0.00,,,0.00,Wunderground v.1.15,2013-02-11 14:40:00,
2013-02-11 07:45:00,25.0,5.1,30.06,West,261,0.0,0.0,42,0.00,,,0.00,Wunderground v.1.15,2013-02-11 14:45:00,
2013-02-11 07:50:00,25.3,5.4,30.06,West,261,0.0,0.0,42,0.00,,,0.00,Wunderground v.1.15,2013-02-11 14:50:00,
2013-02-11 07:55:00,25.6,5.6,30.06,West,261,0.0,0.0,42,0.00,,,0.00,Wunderground v.1.15,2013-02-11 14:55:00,
2013-02-11 08:00:00,26.1,6.1,30.06,West,261,0.0,0.0,42,0.00,,,0.00,Wunderground v.1.15,2013-02-11 15:00:00,
2013-02-11 08:05:00,26.6,6.6,30.08,West,261,0.0,0.0,42,0.00,,,0.00,Wunderground v.1.15,2013-02-11 15:05:00,
2013-02-11 08:15:00,28.2,7.5,30.08,West,262,0.0,0.0,41,0.00,,,0.00,Wunderground v.1.15,2013-02-11 15:15:00,
2013-02-11 08:20:00,29.2,7.8,30.06,West,262,0.0,0.0,40,0.00,,,0.00,Wunderground v.1.15,2013-02-11 15:20:00,
2013-02-11 08:30:00,31.3,9.2,30.05,West,262,0.0,0.0,39,0.00,,,0.00,Wunderground v.1.15,2013-02-11 15:30:00,
2013-02-11 08:35:00,32.5,10.3,30.05,West,262,0.0,0.0,39,0.00,,,0.00,Wunderground v.1.15,2013-02-11 15:35:00,
2013-02-11 08:40:00,33.9,10.9,30.04,West,262,0.0,0.0,38,0.00,,,0.00,Wunderground v.1.15,2013-02-11 15:40:00,
2013-02-11 08:50:00,36.5,12.0,30.03,NNW,327,0.0,0.0,36,0.00,,,0.00,Wunderground v.1.15,2013-02-11 15:50:00,
2013-02-11 08:55:00,38.0,12.7,30.02,NNW,328,0.0,0.0,35,0.00,,,0.00,Wunderground v.1.15,2013-02-11 15:55:00,
2013-02-11 09:00:00,39.4,13.3,30.01,NW,317,0.0,1.0,34,0.00,,,0.00,Wunderground v.1.15,2013-02-11 16:00:00,
2013-02-11 09:05:00,40.7,13.8,30.02,NW,317,0.0,1.0,33,0.00,,,0.00,Wunderground v.1.15,2013-02-11 16:05:00,
2013-02-11 09:15:00,43.1,14.5,30.00,NW,317,0.0,0.0,31,0.00,,,0.00,Wunderground v.1.15,2013-02-11 16:15:00,
2013-02-11 09:20:00,44.1,14.6,30.01,NW,317,0.0,0.0,30,0.00,,,0.00,Wunderground v.1.15,2013-02-11 16:20:00,
2013-02-11 09:30:00,45.9,15.4,30.00,NW,317,0.0,0.0,29,0.00,,,0.00,Wunderground v.1.15,2013-02-11 16:30:00,
2013-02-11 09:35:00,46.8,16.2,29.99,NW,317,0.0,0.0,29,0.00,,,0.00,Wunderground v.1.15,2013-02-11 16:35:00,
2013-02-11 09:40:00,47.5,16.0,29.99,WNW,289,0.0,0.0,28,0.00,,,0.00,Wunderground v.1.15,2013-02-11 16:40:00,
2013-02-11 09:45:00,48.2,16.6,29.99,WNW,289,0.0,0.0,28,0.00,,,0.00,Wunderground v.1.15,2013-02-11 16:45:00,
2013-02-11 09:50:00,48.8,16.2,29.98,SE,139,0.0,0.0,27,0.00,,,0.00,Wunderground v.1.15,2013-02-11 16:50:00,
2013-02-11 09:55:00,49.4,16.8,29.98,SSE,157,0.0,0.0,27,0.00,,,0.00,Wunderground v.1.15,2013-02-11 16:55:00,
2013-02-11 10:00:00,50.0,16.4,29.98,SE,138,0.0,0.0,26,0.00,,,0.00,Wunderground v.1.15,2013-02-11 17:00:00,
2013-02-11 10:05:00,50.5,16.8,29.98,SSE,148,0.0,0.0,26,0.00,,,0.00,Wunderground v.1.15,2013-02-11 17:05:00,
2013-02-11 10:15:00,51.3,17.5,29.98,SE,126,0.0,0.0,26,0.00,,,0.00,Wunderground v.1.15,2013-02-11 17:15:00,
2013-02-11 10:20:00,51.8,17.0,29.98,ESE,105,0.0,0.0,25,0.00,,,0.00,Wunderground v.1.15,2013-02-11 17:20:00,
2013-02-11 10:30:00,52.8,17.9,29.97,ESE,123,1.0,1.0,25,0.00,,,0.00,Wunderground v.1.15,2013-02-11 17:30:00,
2013-02-11 10:35:00,52.9,17.0,29.97,SSW,212,1.0,1.0,24,0.00,,,0.00,Wunderground v.1.15,2013-02-11 17:35:00,
2013-02-11 10:40:00,53.2,18.2,29.97,ESE,121,1.0,1.0,25,0.00,,,0.00,Wunderground v.1.15,2013-02-11 17:40:00,
2013-02-11 10:45:00,53.8,17.8,29.97,SE,127,0.0,1.0,24,0.00,,,0.00,Wunderground v.1.15,2013-02-11 17:45:00,
2013-02-11 10:50:00,54.3,19.2,29.96,WSW,256,0.0,0.0,25,0.00,,,0.00,Wunderground v.1.15,2013-02-11 17:50:00,
2013-02-11 10:55:00,54.6,19.4,29.95,ESE,106,0.0,0.0,25,0.00,,,0.00,Wunderground v.1.15,2013-02-11 17:55:00,
2013-02-11 11:05:00,55.0,19.8,29.96,South,181,1.0,3.0,25,0.00,,,0.00,Wunderground v.1.15,2013-02-11 18:05:00,
2013-02-11 11:15:00,54.9,19.7,29.95,WSW,248,1.0,1.0,25,0.00,,,0.00,Wunderground v.1.15,2013-02-11 18:15:00,
2013-02-11 11:20:00,55.0,19.8,29.95,SW,220,1.0,1.0,25,0.00,,,0.00,Wunderground v.1.15,2013-02-11 18:20:00,
2013-02-11 11:25:00,55.0,19.8,29.95,West,259,0.0,1.0,25,0.00,,,0.00,Wunderground v.1.15,2013-02-11 18:25:00,
2013-02-11 11:30:00,55.3,20.0,29.95,ESE,111,0.0,0.0,25,0.00,,,0.00,Wunderground v.1.15,2013-02-11 18:30:00,
2013-02-11 11:35:00,55.4,20.1,29.95,West,259,0.0,2.0,25,0.00,,,0.00,Wunderground v.1.15,2013-02-11 18:35:00,
2013-02-11 11:40:00,55.2,19.0,29.95,West,260,1.0,3.0,24,0.00,,,0.00,Wunderground v.1.15,2013-02-11 18:40:00,
2013-02-11 11:45:00,55.0,19.8,29.94,ESE,123,1.0,3.0,25,0.00,,,0.00,Wunderground v.1.15,2013-02-11 18:45:00,
2013-02-11 11:50:00,55.2,19.9,29.94,East,91,1.0,1.0,25,0.00,,,0.00,Wunderground v.1.15,2013-02-11 18:50:00,
2013-02-11 11:55:00,55.6,19.3,29.94,ESE,122,0.0,1.0,24,0.00,,,0.00,Wunderground v.1.15,2013-02-11 18:55:00,
2013-02-11 12:05:00,56.5,20.1,29.93,West,263,1.0,1.0,24,0.00,,,0.00,Wunderground v.1.15,2013-02-11 19:05:00,
2013-02-11 12:15:00,57.4,20.9,29.93,ESE,113,0.0,2.0,24,0.00,,,0.00,Wunderground v.1.15,2013-02-11 19:15:00,
2013-02-11 12:20:00,57.6,21.0,29.92,ESE,118,0.0,0.0,24,0.00,,,0.00,Wunderground v.1.15,2013-02-11 19:20:00,
2013-02-11 12:25:00,58.1,21.4,29.92,SE,144,0.0,0.0,24,0.00,,,0.00,Wunderground v.1.15,2013-02-11 19:25:00,
2013-02-11 12:30:00,58.6,21.9,29.91,NW,314,0.0,0.0,24,0.00,,,0.00,Wunderground v.1.15,2013-02-11 19:30:00,
2013-02-11 12:35:00,58.2,22.5,29.92,West,265,0.0,0.0,25,0.00,,,0.00,Wunderground v.1.15,2013-02-11 19:35:00,
2013-02-11 12:40:00,57.5,22.8,29.92,WNW,290,1.0,3.0,26,0.00,,,0.00,Wunderground v.1.15,2013-02-11 19:40:00,
2013-02-11 12:45:00,56.8,23.1,29.91,WSW,240,1.0,3.0,27,0.00,,,0.00,Wunderground v.1.15,2013-02-11 19:45:00,
2013-02-11 12:50:00,56.1,23.4,29.91,WSW,257,1.0,1.0,28,0.00,,,0.00,Wunderground v.1.15,2013-02-11 19:50:00,
2013-02-11 13:00:00,56.3,23.6,29.91,SW,234,3.0,6.0,28,0.00,,,0.00,Wunderground v.1.15,2013-02-11 20:00:00,
2013-02-11 13:05:00,56.6,23.8,29.90,SSW,212,3.0,6.0,28,0.00,,,0.00,Wunderground v.1.15,2013-02-11 20:05:00,
2013-02-11 13:15:00,57.1,23.4,29.90,NE,56,3.0,3.0,27,0.00,,,0.00,Wunderground v.1.15,2013-02-11 20:15:00,
2013-02-11 13:20:00,57.4,23.7,29.90,ESE,102,4.0,4.0,27,0.00,,,0.00,Wunderground v.1.15,2013-02-11 20:20:00,
2013-02-11 13:25:00,57.6,23.8,29.88,WSW,248,3.0,4.0,27,0.00,,,0.00,Wunderground v.1.15,2013-02-11 20:25:00,
2013-02-11 13:30:00,57.7,23.9,29.88,SW,229,2.0,4.0,27,0.00,,,0.00,Wunderground v.1.15,2013-02-11 20:30:00,
2013-02-11 13:40:00,57.6,22.9,29.88,West,264,4.0,4.0,26,0.00,,,0.00,Wunderground v.1.15,2013-02-11 20:40:00,
2013-02-11 13:45:00,57.7,23.0,29.87,West,259,2.0,4.0,26,0.00,,,0.00,Wunderground v.1.15,2013-02-11 20:45:00,
2013-02-11 13:55:00,57.7,22.1,29.86,WSW,257,3.0,5.0,25,0.00,,,0.00,Wunderground v.1.15,2013-02-11 20:55:00,
2013-02-11 14:00:00,58.1,21.4,29.86,East,96,4.0,4.0,24,0.00,,,0.00,Wunderground v.1.15,2013-02-11 21:00:00,
2013-02-11 14:05:00,58.1,21.4,29.87,NW,319,4.0,4.0,24,0.00,,,0.00,Wunderground v.1.15,2013-02-11 21:05:00,
2013-02-11 14:15:00,58.1,22.4,29.86,ESE,107,4.0,6.0,25,0.00,,,0.00,Wunderground v.1.15,2013-02-11 21:15:00,
2013-02-11 14:20:00,57.6,22.0,29.86,WSW,250,4.0,4.0,25,0.00,,,0.00,Wunderground v.1.15,2013-02-11 21:20:00,
2013-02-11 14:30:00,58.0,20.4,29.85,NE,47,2.0,2.0,23,0.00,,,0.00,Wunderground v.1.15,2013-02-11 21:30:00,
2013-02-11 14:35:00,58.1,18.3,29.86,WSW,255,4.0,11.0,21,0.00,,,0.00,Wunderground v.1.15,2013-02-11 21:35:00,
2013-02-11 14:45:00,58.3,18.5,29.86,ESE,103,5.0,10.0,21,0.00,,,0.00,Wunderground v.1.15,2013-02-11 21:45:00,
2013-02-11 14:50:00,58.5,19.7,29.85,West,259,4.0,5.0,22,0.00,,,0.00,Wunderground v.1.15,2013-02-11 21:50:00,
2013-02-11 14:55:00,58.6,19.8,29.84,ENE,57,4.0,5.0,22,0.00,,,0.00,Wunderground v.1.15,2013-02-11 21:55:00,
2013-02-11 15:05:00,58.8,20.0,29.85,East,88,2.0,3.0,22,0.00,,,0.00,Wunderground v.1.15,2013-02-11 22:05:00,
2013-02-11 15:15:00,59.0,19.1,29.85,West,265,1.0,4.0,21,0.00,,,0.00,Wunderground v.1.15,2013-02-11 22:15:00,
2013-02-11 15:25:00,59.0,19.1,29.84,NNW,338,2.0,2.0,21,0.00,,,0.00,Wunderground v.1.15,2013-02-11 22:25:00,
2013-02-11 15:30:00,59.0,19.1,29.84,WSW,257,2.0,4.0,21,0.00,,,0.00,Wunderground v.1.15,2013-02-11 22:30:00,
2013-02-11 15:35:00,59.0,17.9,29.84,WSW,256,3.0,5.0,20,0.00,,,0.00,Wunderground v.1.15,2013-02-11 22:35:00,
2013-02-11 15:45:00,58.6,18.7,29.83,East,94,4.0,5.0,21,0.00,,,0.00,Wunderground v.1.15,2013-02-11 22:45:00,
2013-02-11 15:50:00,58.2,18.4,29.84,ENE,71,4.0,4.0,21,0.00,,,0.00,Wunderground v.1.15,2013-02-11 22:50:00,
2013-02-11 15:55:00,57.9,19.2,29.84,South,186,3.0,5.0,22,0.00,,,0.00,Wunderground v.1.15,2013-02-11 22:55:00,
2013-02-11 16:00:00,57.7,18.0,29.84,NNW,341,4.0,7.0,21,0.00,,,0.00,Wunderground v.1.15,2013-02-11 23:00:00,
2013-02-11 16:05:00,57.5,16.7,29.85,SW,234,4.0,7.0,20,0.00,,,0.00,Wunderground v.1.15,2013-02-11 23:05:00,
2013-02-11 16:15:00,57.2,15.2,29.86,WSW,245,3.0,3.0,19,0.00,,,0.00,Wunderground v.1.15,2013-02-11 23:15:00,
2013-02-11 16:20:00,57.1,16.3,29.86,WSW,257,3.0,3.0,20,0.00,,,0.00,Wunderground v.1.15,2013-02-11 23:20:00,
2013-02-11 16:30:00,56.7,14.8,29.86,SW,233,3.0,3.0,19,0.00,,,0.00,Wunderground v.1.15,2013-02-11 23:30:00,
2013-02-11 16:35:00,56.4,15.8,29.86,WSW,255,3.0,3.0,20,0.00,,,0.00,Wunderground v.1.15,2013-02-11 23:35:00,
2013-02-11 16:45:00,56.0,15.4,29.86,WNW,286,2.0,4.0,20,0.00,,,0.00,Wunderground v.1.15,2013-02-11 23:45:00,
2013-02-11 16:50:00,55.7,15.2,29.86,NW,312,3.0,4.0,20,0.00,,,0.00,Wunderground v.1.15,2013-02-11 23:50:00,
2013-02-11 16:55:00,55.3,16.0,29.87,WNW,294,3.0,4.0,21,0.00,,,0.00,Wunderground v.1.15,2013-02-11 23:55:00,
2013-02-11 17:00:00,55.0,15.7,29.87,NW,304,3.0,3.0,21,0.00,,,0.00,Wunderground v.1.15,2013-02-12 00:00:00,
2013-02-11 17:05:00,54.6,15.4,29.88,West,269,3.0,4.0,21,0.00,,,0.00,Wunderground v.1.15,2013-02-12 00:05:00,
2013-02-11 17:15:00,53.5,15.5,29.88,NW,318,5.0,5.0,22,0.00,,,0.00,Wunderground v.1.15,2013-02-12 00:15:00,
2013-02-11 17:20:00,52.9,16.1,29.89,West,265,4.0,4.0,23,0.00,,,0.00,Wunderground v.1.15,2013-02-12 00:20:00,
2013-02-11 17:25:00,52.4,15.6,29.89,West,281,3.0,4.0,23,0.00,,,0.00,Wunderground v.1.15,2013-02-12 00:25:00,
2013-02-11 17:30:00,52.0,15.3,29.90,WNW,296,2.0,2.0,23,0.00,,,0.00,Wunderground v.1.15,2013-02-12 00:30:00,
2013-02-11 17:35:00,51.6,15.0,29.90,West,268,2.0,4.0,23,0.00,,,0.00,Wunderground v.1.15,2013-02-12 00:35:00,
2013-02-11 17:40:00,51.2,15.6,29.90,West,269,1.0,1.0,24,0.00,,,0.00,Wunderground v.1.15,2013-02-12 00:40:00,
2013-02-11 17:45:00,50.8,15.2,29.90,WNW,296,1.0,7.0,24,0.00,,,0.00,Wunderground v.1.15,2013-02-12 00:45:00,
2013-02-11 17:55:00,50.2,14.7,29.91,NW,308,1.0,1.0,24,0.00,,,0.00,Wunderground v.1.15,2013-02-12 00:55:00,
2013-02-11 18:00:00,49.8,15.3,29.90,WNW,286,0.0,0.0,25,0.00,,,0.00,Wunderground v.1.15,2013-02-12 01:00:00,
2013-02-11 18:05:00,49.5,15.1,29.92,NNW,331,0.0,0.0,25,0.00,,,0.00,Wunderground v.1.15,2013-02-12 01:05:00,
2013-02-11 18:15:00,49.0,14.7,29.92,WNW,290,0.0,0.0,25,0.00,,,0.00,Wunderground v.1.15,2013-02-12 01:15:00,
2013-02-11 18:20:00,48.8,14.5,29.92,West,267,0.0,0.0,25,0.00,,,0.00,Wunderground v.1.15,2013-02-12 01:20:00,
2013-02-11 18:30:00,48.3,15.0,29.93,NW,314,0.0,0.0,26,0.00,,,0.00,Wunderground v.1.15,2013-02-12 01:30:00,
2013-02-11 18:35:00,48.0,14.7,29.93,NW,313,0.0,0.0,26,0.00,,,0.00,Wunderground v.1.15,2013-02-12 01:35:00,
2013-02-11 18:40:00,47.7,14.4,29.93,NW,316,0.0,0.0,26,0.00,,,0.00,Wunderground v.1.15,2013-02-12 01:40:00,
2013-02-11 18:45:00,47.4,14.2,29.93,NW,315,0.0,0.0,26,0.00,,,0.00,Wunderground v.1.15,2013-02-12 01:45:00,
2013-02-11 18:50:00,47.1,13.9,29.94,NW,315,0.0,0.0,26,0.00,,,0.00,Wunderground v.1.15,2013-02-12 01:50:00,
2013-02-11 19:00:00,46.7,13.6,29.94,NW,315,0.0,0.0,26,0.00,,,0.00,Wunderground v.1.15,2013-02-12 02:00:00,
2013-02-11 19:05:00,46.4,13.3,29.94,NW,315,0.0,0.0,26,0.00,,,0.00,Wunderground v.1.15,2013-02-12 02:05:00,
2013-02-11 19:15:00,46.1,13.9,29.94,NW,315,0.0,0.0,27,0.00,,,0.00,Wunderground v.1.15,2013-02-12 02:15:00,
2013-02-11 19:20:00,45.8,13.7,29.95,NW,315,0.0,0.0,27,0.00,,,0.00,Wunderground v.1.15,2013-02-12 02:20:00,
2013-02-11 19:25:00,45.5,13.4,29.95,NW,315,0.0,0.0,27,0.00,,,0.00,Wunderground v.1.15,2013-02-12 02:25:00,
2013-02-11 19:35:00,44.9,13.7,29.96,NW,315,0.0,0.0,28,0.00,,,0.00,Wunderground v.1.15,2013-02-12 02:35:00,
2013-02-11 19:40:00,44.6,13.5,29.97,NW,315,0.0,0.0,28,0.00,,,0.00,Wunderground v.1.15,2013-02-12 02:40:00,
2013-02-11 19:45:00,44.3,13.2,29.97,NW,315,0.0,0.0,28,0.00,,,0.00,Wunderground v.1.15,2013-02-12 02:45:00,
2013-02-11 19:50:00,44.0,13.7,29.97,NW,315,0.0,0.0,29,0.00,,,0.00,Wunderground v.1.15,2013-02-12 02:50:00,
2013-02-11 19:55:00,43.6,13.4,29.97,NW,315,0.0,0.0,29,0.00,,,0.00,Wunderground v.1.15,2013-02-12 02:55:00,
2013-02-11 20:00:00,43.3,13.1,29.98,NW,315,0.0,0.0,29,0.00,,,0.00,Wunderground v.1.15,2013-02-12 03:00:00,
2013-02-11 20:05:00,42.9,12.8,29.92,NW,315,0.0,0.0,29,0.00,,,0.00,Wunderground v.1.15,2013-02-12 03:05:00,
2013-02-11 20:15:00,42.3,12.3,29.92,NW,315,0.0,0.0,29,0.00,,,0.00,Wunderground v.1.15,2013-02-12 03:15:00,
2013-02-11 20:25:00,41.8,12.6,29.93,NW,315,0.0,0.0,30,0.00,,,0.00,Wunderground v.1.15,2013-02-12 03:25:00,
2013-02-11 20:30:00,41.5,13.1,29.93,NW,315,0.0,0.0,31,0.00,,,0.00,Wunderground v.1.15,2013-02-12 03:30:00,
2013-02-11 20:35:00,41.3,12.9,29.94,NW,315,0.0,0.0,31,0.00,,,0.00,Wunderground v.1.15,2013-02-12 03:35:00,
2013-02-11 20:45:00,41.1,13.4,29.94,WNW,283,0.0,0.0,32,0.00,,,0.00,Wunderground v.1.15,2013-02-12 03:45:00,
2013-02-11 20:50:00,41.1,13.4,29.94,WNW,284,0.0,0.0,32,0.00,,,0.00,Wunderground v.1.15,2013-02-12 03:50:00,
2013-02-11 20:55:00,41.1,13.4,29.94,WNW,283,0.0,0.0,32,0.00,,,0.00,Wunderground v.1.15,2013-02-12 03:55:00,
2013-02-11 21:00:00,41.0,14.1,29.94,WNW,284,0.0,0.0,33,0.00,,,0.00,Wunderground v.1.15,2013-02-12 04:00:00,
2013-02-11 21:05:00,41.0,14.1,29.90,WNW,283,0.0,0.0,33,0.00,,,0.00,Wunderground v.1.15,2013-02-12 04:05:00,
2013-02-11 21:15:00,40.8,14.6,29.90,WNW,283,0.0,0.0,34,0.00,,,0.00,Wunderground v.1.15,2013-02-12 04:15:00,
2013-02-11 21:20:00,40.7,14.5,29.90,WNW,283,0.0,0.0,34,0.00,,,0.00,Wunderground v.1.15,2013-02-12 04:20:00,
2013-02-11 21:25:00,40.6,14.4,29.90,West,281,0.0,0.0,34,0.00,,,0.00,Wunderground v.1.15,2013-02-12 04:25:00,
2013-02-11 21:30:00,40.5,14.3,29.91,WNW,282,0.0,0.0,34,0.00,,,0.00,Wunderground v.1.15,2013-02-12 04:30:00,
2013-02-11 21:35:00,40.4,14.9,29.91,West,281,0.0,0.0,35,0.00,,,0.00,Wunderground v.1.15,2013-02-12 04:35:00,
2013-02-11 21:40:00,40.3,14.8,29.91,WNW,282,0.0,0.0,35,0.00,,,0.00,Wunderground v.1.15,2013-02-12 04:40:00,
2013-02-11 21:50:00,40.1,14.6,29.91,West,281,0.0,0.0,35,0.00,,,0.00,Wunderground v.1.15,2013-02-12 04:50:00,
2013-02-11 21:55:00,39.9,14.4,29.91,WNW,282,0.0,0.0,35,0.00,,,0.00,Wunderground v.1.15,2013-02-12 04:55:00,
2013-02-11 22:00:00,39.8,15.0,29.91,West,281,0.0,0.0,36,0.00,,,0.00,Wunderground v.1.15,2013-02-12 05:00:00,
2013-02-11 22:05:00,39.6,15.4,29.89,WNW,282,0.0,0.0,37,0.00,,,0.00,Wunderground v.1.15,2013-02-12 05:05:00,
2013-02-11 22:10:00,39.5,15.3,29.90,WNW,282,0.0,0.0,37,0.00,,,0.00,Wunderground v.1.15,2013-02-12 05:10:00,
2013-02-11 22:15:00,39.4,15.3,29.90,West,281,0.0,0.0,37,0.00,,,0.00,Wunderground v.1.15,2013-02-12 05:15:00,
2013-02-11 22:25:00,39.3,15.8,29.89,West,281,0.0,0.0,38,0.00,,,0.00,Wunderground v.1.15,2013-02-12 05:25:00,
2013-02-11 22:30:00,39.4,15.9,29.89,West,281,0.0,0.0,38,0.00,,,0.00,Wunderground v.1.15,2013-02-12 05:30:00,
2013-02-11 22:35:00,39.5,16.6,29.89,West,281,0.0,0.0,39,0.00,,,0.00,Wunderground v.1.15,2013-02-12 05:35:00,
2013-02-11 22:40:00,39.5,16.0,29.89,West,281,0.0,0.0,38,0.00,,,0.00,Wunderground v.1.15,2013-02-12 05:40:00,
2013-02-11 22:45:00,39.6,16.6,29.89,West,281,0.0,0.0,39,0.00,,,0.00,Wunderground v.1.15,2013-02-12 05:45:00,
2013-02-11 22:50:00,39.7,16.7,29.89,West,281,0.0,0.0,39,0.00,,,0.00,Wunderground v.1.15,2013-02-12 05:50:00,
2013-02-11 23:00:00,39.9,17.5,29.89,West,280,0.0,0.0,40,0.00,,,0.00,Wunderground v.1.15,2013-02-12 06:00:00,
2013-02-11 23:05:00,40.0,18.7,29.89,WSW,257,0.0,0.0,42,0.00,,,0.00,Wunderground v.1.15,2013-02-12 06:05:00,
2013-02-11 23:15:00,40.3,20.1,29.90,West,264,0.0,1.0,44,0.00,,,0.00,Wunderground v.1.15,2013-02-12 06:15:00,
2013-02-11 23:20:00,40.4,20.2,29.90,West,260,0.0,0.0,44,0.00,,,0.00,Wunderground v.1.15,2013-02-12 06:20:00,
2013-02-11 23:25:00,40.4,21.7,29.90,SW,236,0.0,0.0,47,0.00,,,0.00,Wunderground v.1.15,2013-02-12 06:25:00,
2013-02-11 23:35:00,40.4,23.2,29.90,West,271,0.0,2.0,50,0.00,,,0.00,Wunderground v.1.15,2013-02-12 06:35:00,
2013-02-11 23:40:00,40.4,24.1,29.90,SW,218,0.0,1.0,52,0.00,,,0.00,Wunderground v.1.15,2013-02-12 06:40:00,
2013-02-11 23:45:00,40.2,25.7,29.89,WSW,250,0.0,1.0,56,0.00,,,0.00,Wunderground v.1.15,2013-02-12 06:45:00,
2013-02-11 23:50:00,40.0,26.4,29.90,West,269,0.0,0.0,58,0.00,,,0.00,Wunderground v.1.15,2013-02-12 06:50:00,
2013-02-11 23:55:00,39.5,26.8,29.91,West,263,1.0,3.0,60,0.00,,,0.00,Wunderground v.1.15,2013-02-12 06:55:00,